Time;durP1;ratioP1;P1;durP2;ratioP2;P2;SDS_P1;SDS_P2;PMS_P1;PMS_P2;Temp;Humidity;BMP_temperature;BMP_pressure;BME280_temperature;BME280_humidity;BME280_pressure;Samples;Min_cycle;Max_cycle;Signal;HPM_P1;HPM_P2
2023/03/13 00:01:26;;;;;;;14.48;4.05;;;;;;;;;;5092864;28;20263;-71
2023/03/13 00:03:54;;;;;;;15.38;4.00;;;;;;;;;;5093848;28;20676;-71
2023/03/13 00:06:19;;;;;;;13.77;3.70;;;;;;;;;;5092637;28;20330;-70
2023/03/13 00:08:44;;;;;;;11.52;3.45;;;;;;;;;;5093588;28;20312;-71
2023/03/13 00:11:10;;;;;;;11.60;3.30;;;;;;;;;;5081634;28;20237;-70
2023/03/13 00:13:35;;;;;;;12.57;3.50;;;;;;;;;;5072545;28;20264;-71
2023/03/13 00:16:01;;;;;;;12.05;3.85;;;;;;;;;;5073037;28;20242;-70
2023/03/13 00:18:26;;;;;;;13.00;3.60;;;;;;;;;;5082134;28;20249;-71
2023/03/13 00:20:58;;;;;;;12.68;3.55;;;;;;;;;;5092840;28;20210;-71
2023/03/13 00:23:23;;;;;;;14.00;3.72;;;;;;;;;;5092842;28;20739;-71
2023/03/13 00:25:54;;;;;;;13.82;3.67;;;;;;;;;;5074372;28;20211;-71
2023/03/13 00:28:20;;;;;;;14.77;3.88;;;;;;;;;;5074752;28;20213;-70
2023/03/13 00:30:45;;;;;;;16.25;4.03;;;;;;;;;;5093528;28;20213;-71
2023/03/13 00:33:10;;;;;;;12.93;3.42;;;;;;;;;;5091984;28;20221;-70
2023/03/13 00:35:35;;;;;;;11.40;3.42;;;;;;;;;;5093439;28;20608;-70
2023/03/13 00:38:01;;;;;;;12.02;3.28;;;;;;;;;;5092804;28;20287;-70
2023/03/13 00:40:26;;;;;;;12.88;3.75;;;;;;;;;;5092797;28;20292;-71
2023/03/13 00:42:51;;;;;;;11.32;3.50;;;;;;;;;;5093365;28;20224;-70
2023/03/13 00:45:17;;;;;;;10.52;3.60;;;;;;;;;;5092412;28;20707;-71
2023/03/13 00:47:42;;;;;;;11.45;3.30;;;;;;;;;;5060262;28;20246;-71
2023/03/13 00:50:07;;;;;;;13.02;3.78;;;;;;;;;;5054634;28;20221;-70
2023/03/13 00:52:33;;;;;;;9.55;3.00;;;;;;;;;;5080206;28;20214;-71
2023/03/13 00:54:58;;;;;;;11.38;3.17;;;;;;;;;;5082290;28;20729;-71
2023/03/13 00:57:23;;;;;;;11.55;3.60;;;;;;;;;;5082275;28;20216;-71
2023/03/13 00:59:48;;;;;;;10.57;3.33;;;;;;;;;;5064523;28;20213;-72
2023/03/13 01:02:14;;;;;;;10.02;3.13;;;;;;;;;;5081947;28;20316;-71
2023/03/13 01:04:39;;;;;;;11.55;3.17;;;;;;;;;;5082301;28;20599;-71
2023/03/13 01:07:04;;;;;;;10.35;3.33;;;;;;;;;;5079886;28;20232;-71
2023/03/13 01:09:30;;;;;;;12.32;3.25;;;;;;;;;;5073481;28;20931;-71
2023/03/13 01:11:55;;;;;;;11.68;3.15;;;;;;;;;;5057808;28;20305;-72
2023/03/13 01:14:20;;;;;;;12.98;3.75;;;;;;;;;;5056883;28;20210;-71
2023/03/13 01:16:45;;;;;;;12.77;3.55;;;;;;;;;;5061932;28;20622;-71
2023/03/13 01:19:12;;;;;;;13.95;3.38;;;;;;;;;;5062230;28;20246;-71
2023/03/13 01:21:37;;;;;;;10.80;3.47;;;;;;;;;;5062428;28;20214;-71
2023/03/13 01:24:02;;;;;;;12.85;3.10;;;;;;;;;;5061691;28;20209;-70
2023/03/13 01:26:28;;;;;;;11.23;3.10;;;;;;;;;;5062451;28;20210;-71
2023/03/13 01:28:53;;;;;;;11.65;3.30;;;;;;;;;;5062521;28;20226;-71
2023/03/13 01:31:19;;;;;;;10.32;3.08;;;;;;;;;;5053975;28;20227;-71
2023/03/13 01:33:45;;;;;;;10.20;3.00;;;;;;;;;;5055064;28;20203;-71
2023/03/13 01:36:10;;;;;;;11.50;3.65;;;;;;;;;;5053724;28;20225;-72
2023/03/13 01:38:36;;;;;;;11.27;2.97;;;;;;;;;;5062094;28;20217;-72
2023/03/13 01:41:01;;;;;;;9.52;3.03;;;;;;;;;;5062890;28;20206;-71
2023/03/13 01:43:27;;;;;;;9.93;2.95;;;;;;;;;;5063402;28;20210;-72
2023/03/13 01:46:12;;;;;;;9.48;2.85;;;;;;;;;;5081711;28;20201;-72
2023/03/13 01:48:39;;;;;;;11.63;2.88;;;;;;;;;;5089260;28;20562;-72
2023/03/13 01:51:07;;;;;;;8.60;2.63;;;;;;;;;;5090238;28;20556;-72
2023/03/13 01:53:32;;;;;;;13.05;3.40;;;;;;;;;;5074036;28;20225;-72
2023/03/13 01:55:58;;;;;;;9.43;3.00;;;;;;;;;;5091705;28;20232;-71
2023/03/13 01:58:24;;;;;;;9.80;3.20;;;;;;;;;;5090592;28;20229;-72
2023/03/13 02:00:49;;;;;;;8.73;2.97;;;;;;;;;;5091500;28;20210;-72
2023/03/13 02:03:16;;;;;;;10.48;2.75;;;;;;;;;;5091185;28;20260;-72
2023/03/13 02:05:41;;;;;;;8.15;2.58;;;;;;;;;;5090811;28;20212;-72
2023/03/13 02:08:07;;;;;;;8.77;2.78;;;;;;;;;;5073222;28;20214;-71
2023/03/13 02:10:33;;;;;;;9.75;2.38;;;;;;;;;;5066865;28;20211;-72
2023/03/13 02:12:58;;;;;;;7.97;2.95;;;;;;;;;;5052871;28;20203;-72
2023/03/13 02:15:23;;;;;;;8.70;2.85;;;;;;;;;;5070457;28;20211;-72
2023/03/13 02:17:49;;;;;;;8.95;2.85;;;;;;;;;;5056833;28;20218;-72
2023/03/13 02:20:14;;;;;;;9.63;3.00;;;;;;;;;;5071688;28;20217;-72
2023/03/13 02:22:59;;;;;;;8.15;3.08;;;;;;;;;;5091196;28;20201;-72
2023/03/13 02:25:24;;;;;;;7.28;2.20;;;;;;;;;;5089818;28;20225;-72
2023/03/13 02:27:50;;;;;;;7.05;2.20;;;;;;;;;;5091131;28;20251;-71
2023/03/13 02:30:15;;;;;;;6.75;2.45;;;;;;;;;;5072364;28;20232;-71
2023/03/13 02:32:40;;;;;;;7.57;2.60;;;;;;;;;;5074432;28;20234;-72
2023/03/13 02:35:07;;;;;;;5.78;2.13;;;;;;;;;;5060559;28;20768;-71
2023/03/13 02:37:33;;;;;;;8.15;2.58;;;;;;;;;;5057052;28;20257;-72
2023/03/13 02:39:59;;;;;;;6.72;2.08;;;;;;;;;;5053398;28;20804;-72
2023/03/13 02:42:24;;;;;;;7.28;2.38;;;;;;;;;;5054494;28;20795;-72
2023/03/13 02:44:50;;;;;;;5.97;2.13;;;;;;;;;;5077236;28;20209;-71
2023/03/13 02:47:17;;;;;;;4.32;1.95;;;;;;;;;;5061662;28;20210;-70
2023/03/13 02:49:42;;;;;;;3.40;1.70;;;;;;;;;;5080494;28;20232;-71
2023/03/13 02:52:16;;;;;;;4.57;2.00;;;;;;;;;;5060754;28;20548;-70
2023/03/13 02:54:41;;;;;;;6.95;2.30;;;;;;;;;;5060637;28;20613;-71
2023/03/13 02:57:06;;;;;;;4.75;1.90;;;;;;;;;;5061870;28;20721;-71
2023/03/13 02:59:32;;;;;;;6.00;2.00;;;;;;;;;;5078824;28;20214;-72
2023/03/13 03:01:57;;;;;;;5.15;2.05;;;;;;;;;;5072732;28;20298;-71
2023/03/13 03:04:23;;;;;;;6.28;2.13;;;;;;;;;;5072685;28;20201;-71
2023/03/13 03:06:49;;;;;;;6.95;2.53;;;;;;;;;;5074527;28;20241;-71
2023/03/13 03:09:14;;;;;;;7.75;2.60;;;;;;;;;;5061242;28;20241;-71
2023/03/13 03:11:39;;;;;;;5.82;2.30;;;;;;;;;;5065073;28;20577;-71
2023/03/13 03:14:05;;;;;;;5.28;2.10;;;;;;;;;;5059957;28;20242;-71
2023/03/13 03:16:30;;;;;;;5.15;2.60;;;;;;;;;;5061116;28;20210;-70
2023/03/13 03:18:55;;;;;;;6.10;2.40;;;;;;;;;;5067460;28;20218;-71
2023/03/13 03:21:22;;;;;;;7.47;2.30;;;;;;;;;;5060032;28;20923;-70
2023/03/13 03:23:48;;;;;;;7.30;2.78;;;;;;;;;;5051889;28;20784;-71
2023/03/13 03:26:13;;;;;;;6.57;3.00;;;;;;;;;;5047921;28;20206;-71
2023/03/13 03:28:38;;;;;;;7.00;2.85;;;;;;;;;;5051624;28;20213;-71
2023/03/13 03:31:04;;;;;;;8.05;2.95;;;;;;;;;;5058869;28;20306;-71
2023/03/13 03:33:29;;;;;;;6.75;2.88;;;;;;;;;;5065262;28;20218;-71
2023/03/13 03:35:58;;;;;;;5.43;2.80;;;;;;;;;;5087638;28;20233;-71
2023/03/13 03:38:23;;;;;;;5.45;2.78;;;;;;;;;;5089430;28;20211;-70
2023/03/13 03:40:48;;;;;;;6.05;2.60;;;;;;;;;;5090247;28;20202;-70
2023/03/13 03:43:14;;;;;;;5.00;2.83;;;;;;;;;;5088901;28;20236;-70
2023/03/13 03:45:39;;;;;;;5.82;3.00;;;;;;;;;;5090317;28;20205;-70
2023/03/13 03:48:04;;;;;;;5.53;2.88;;;;;;;;;;5089160;28;20669;-70
2023/03/13 03:50:30;;;;;;;4.93;2.67;;;;;;;;;;5089392;28;20250;-70
2023/03/13 03:52:55;;;;;;;6.18;2.55;;;;;;;;;;5089957;28;20232;-70
2023/03/13 03:55:20;;;;;;;5.32;2.78;;;;;;;;;;5089570;28;20217;-70
2023/03/13 03:57:46;;;;;;;5.80;2.75;;;;;;;;;;5089115;28;20584;-70
2023/03/13 04:00:13;;;;;;;3.75;2.20;;;;;;;;;;5089409;28;20259;-70
2023/03/13 04:02:38;;;;;;;6.18;3.05;;;;;;;;;;5089983;28;20197;-70
2023/03/13 04:05:04;;;;;;;4.53;2.60;;;;;;;;;;5088627;28;20213;-72
2023/03/13 04:07:29;;;;;;;5.30;2.53;;;;;;;;;;5087291;28;20202;-69
2023/03/13 04:09:54;;;;;;;3.55;2.22;;;;;;;;;;5060000;28;20288;-69
2023/03/13 04:12:20;;;;;;;4.15;2.38;;;;;;;;;;5058853;28;20234;-69
2023/03/13 04:14:45;;;;;;;4.35;2.30;;;;;;;;;;5059976;28;20791;-69
2023/03/13 04:17:10;;;;;;;4.18;2.33;;;;;;;;;;5059479;28;20261;-68
2023/03/13 04:19:36;;;;;;;4.38;2.40;;;;;;;;;;5058941;28;20214;-69
2023/03/13 04:22:01;;;;;;;3.78;2.30;;;;;;;;;;5052551;28;21175;-68
2023/03/13 04:24:26;;;;;;;4.53;2.50;;;;;;;;;;5052523;28;20238;-69
2023/03/13 04:26:52;;;;;;;5.85;2.40;;;;;;;;;;5052490;28;21096;-68
2023/03/13 04:29:17;;;;;;;3.42;2.17;;;;;;;;;;5058967;28;20643;-68
2023/03/13 04:31:42;;;;;;;3.17;2.20;;;;;;;;;;5059771;28;20627;-68
2023/03/13 04:34:07;;;;;;;4.13;2.30;;;;;;;;;;5058731;28;20264;-68
2023/03/13 04:36:33;;;;;;;3.45;1.98;;;;;;;;;;5059989;28;20202;-68
2023/03/13 04:38:58;;;;;;;3.42;2.30;;;;;;;;;;5059250;28;20261;-69
2023/03/13 04:41:23;;;;;;;3.78;2.33;;;;;;;;;;5059480;28;20229;-68
2023/03/13 04:43:48;;;;;;;3.72;2.47;;;;;;;;;;5066364;28;20198;-69
2023/03/13 04:46:14;;;;;;;4.05;2.50;;;;;;;;;;5074304;28;20336;-69
2023/03/13 04:48:39;;;;;;;4.65;2.47;;;;;;;;;;5064279;28;20213;-69
2023/03/13 04:51:04;;;;;;;4.45;2.60;;;;;;;;;;5060452;28;20224;-68
2023/03/13 04:53:30;;;;;;;4.05;2.45;;;;;;;;;;5062691;28;20214;-69
2023/03/13 04:55:55;;;;;;;3.55;2.70;;;;;;;;;;5062867;28;20202;-69
2023/03/13 04:58:20;;;;;;;3.28;2.58;;;;;;;;;;5062461;28;20225;-69
2023/03/13 05:00:46;;;;;;;4.13;2.53;;;;;;;;;;5062487;28;20562;-69
2023/03/13 05:03:11;;;;;;;4.25;2.80;;;;;;;;;;5062663;28;20335;-68
2023/03/13 05:05:36;;;;;;;4.32;2.55;;;;;;;;;;5059759;28;20202;-69
2023/03/13 05:08:02;;;;;;;4.18;2.80;;;;;;;;;;5054782;28;20268;-68
2023/03/13 05:10:27;;;;;;;3.47;2.60;;;;;;;;;;5055191;28;20229;-69
2023/03/13 05:12:53;;;;;;;5.03;2.80;;;;;;;;;;5058261;28;20214;-69
2023/03/13 05:15:18;;;;;;;3.67;2.70;;;;;;;;;;5061654;28;20264;-68
2023/03/13 05:17:43;;;;;;;4.93;2.80;;;;;;;;;;5062461;28;20962;-69
2023/03/13 05:20:10;;;;;;;3.38;2.65;;;;;;;;;;5062105;28;20575;-68
2023/03/13 05:22:35;;;;;;;5.05;2.97;;;;;;;;;;5061752;28;20206;-68
2023/03/13 05:25:01;;;;;;;4.05;2.65;;;;;;;;;;5062211;28;20222;-68
2023/03/13 05:27:26;;;;;;;4.47;3.00;;;;;;;;;;5061928;28;20206;-69
2023/03/13 05:29:52;;;;;;;4.93;2.72;;;;;;;;;;5054875;28;20709;-68
2023/03/13 05:32:17;;;;;;;4.15;2.58;;;;;;;;;;5054408;28;20221;-68
2023/03/13 05:34:42;;;;;;;3.38;2.30;;;;;;;;;;5055615;28;20210;-68
2023/03/13 05:37:07;;;;;;;8.38;2.97;;;;;;;;;;5060968;28;20214;-67
2023/03/13 05:39:33;;;;;;;4.57;2.78;;;;;;;;;;5062164;28;20210;-68
2023/03/13 05:41:58;;;;;;;5.68;2.50;;;;;;;;;;5062377;28;20217;-68
2023/03/13 05:44:24;;;;;;;4.63;2.83;;;;;;;;;;5060678;28;20206;-68
2023/03/13 05:46:49;;;;;;;4.57;2.78;;;;;;;;;;5062296;28;20214;-68
2023/03/13 05:49:14;;;;;;;5.45;2.65;;;;;;;;;;5047069;28;20269;-68
2023/03/13 05:51:39;;;;;;;5.28;2.58;;;;;;;;;;5057249;28;20632;-69
2023/03/13 05:54:05;;;;;;;3.53;2.50;;;;;;;;;;5073982;28;20226;-68
2023/03/13 05:56:30;;;;;;;3.88;2.70;;;;;;;;;;5072818;28;20236;-68
2023/03/13 05:58:55;;;;;;;5.00;2.88;;;;;;;;;;5079916;28;20209;-68
2023/03/13 06:01:20;;;;;;;3.47;2.42;;;;;;;;;;5081365;28;21033;-68
2023/03/13 06:03:46;;;;;;;4.35;2.38;;;;;;;;;;5080924;28;20217;-68
2023/03/13 06:06:11;;;;;;;5.55;2.80;;;;;;;;;;5081027;28;20275;-68
2023/03/13 06:08:36;;;;;;;5.15;2.40;;;;;;;;;;5081216;28;20263;-68
2023/03/13 06:11:02;;;;;;;5.93;2.50;;;;;;;;;;5069984;28;20227;-68
2023/03/13 06:13:27;;;;;;;3.85;2.50;;;;;;;;;;5058750;28;20206;-67
2023/03/13 06:15:53;;;;;;;4.65;2.65;;;;;;;;;;5054167;28;20942;-66
2023/03/13 06:18:18;;;;;;;4.93;2.40;;;;;;;;;;5075423;28;20812;-66
2023/03/13 06:20:44;;;;;;;4.53;2.45;;;;;;;;;;5091219;28;20206;-65
2023/03/13 06:23:09;;;;;;;4.17;2.57;;;;;;;;;;5089746;28;20434;-64
2023/03/13 06:25:34;;;;;;;4.50;2.40;;;;;;;;;;5089765;28;20628;-65
2023/03/13 06:28:00;;;;;;;3.67;2.00;;;;;;;;;;5090762;28;20206;-66
2023/03/13 06:30:25;;;;;;;5.07;2.47;;;;;;;;;;5090091;28;20220;-65
2023/03/13 06:32:50;;;;;;;5.47;1.95;;;;;;;;;;5095355;28;20202;-65
2023/03/13 06:35:16;;;;;;;4.25;2.63;;;;;;;;;;5094332;28;20577;-67
2023/03/13 06:37:41;;;;;;;3.08;2.00;;;;;;;;;;5072565;28;20206;-65
2023/03/13 06:40:07;;;;;;;4.18;2.00;;;;;;;;;;5089124;28;20271;-65
2023/03/13 06:42:32;;;;;;;3.42;2.15;;;;;;;;;;5090259;28;20218;-65
2023/03/13 06:44:57;;;;;;;4.18;1.98;;;;;;;;;;5090498;28;20200;-66
2023/03/13 06:47:23;;;;;;;4.85;2.20;;;;;;;;;;5070835;28;20282;-65
2023/03/13 06:49:49;;;;;;;5.13;2.00;;;;;;;;;;5090339;28;20248;-64
2023/03/13 06:52:14;;;;;;;3.60;2.00;;;;;;;;;;5089745;28;20213;-64
2023/03/13 06:54:40;;;;;;;4.72;1.92;;;;;;;;;;5089565;28;20202;-64
2023/03/13 06:57:05;;;;;;;5.93;2.28;;;;;;;;;;5089485;28;20239;-64
2023/03/13 06:59:30;;;;;;;4.13;1.90;;;;;;;;;;5090285;28;20555;-65
2023/03/13 07:01:56;;;;;;;4.27;1.90;;;;;;;;;;5088348;28;20932;-66
2023/03/13 07:04:21;;;;;;;4.35;1.95;;;;;;;;;;5071644;28;20210;-65
2023/03/13 07:06:46;;;;;;;5.82;2.45;;;;;;;;;;5088620;28;20575;-65
2023/03/13 07:09:11;;;;;;;4.72;2.20;;;;;;;;;;5089384;28;20217;-65
2023/03/13 07:11:37;;;;;;;5.10;2.00;;;;;;;;;;5089937;28;20304;-66
2023/03/13 07:14:02;;;;;;;5.88;2.10;;;;;;;;;;5088759;28;20212;-66
2023/03/13 07:16:27;;;;;;;5.60;1.85;;;;;;;;;;5089772;28;20263;-66
2023/03/13 07:18:53;;;;;;;5.85;1.90;;;;;;;;;;5089402;28;20673;-66
2023/03/13 07:21:18;;;;;;;4.78;1.65;;;;;;;;;;5088347;28;20296;-65
2023/03/13 07:23:43;;;;;;;4.13;1.77;;;;;;;;;;5089733;28;20727;-66
2023/03/13 07:26:10;;;;;;;5.60;2.10;;;;;;;;;;5088820;28;20259;-65
2023/03/13 07:28:35;;;;;;;4.75;1.70;;;;;;;;;;5069819;28;20199;-65
2023/03/13 07:31:03;;;;;;;4.18;1.77;;;;;;;;;;5089861;28;20223;-64
2023/03/13 07:33:28;;;;;;;4.47;1.63;;;;;;;;;;5090490;28;20222;-65
2023/03/13 07:35:53;;;;;;;5.25;1.92;;;;;;;;;;5084297;28;20668;-65
2023/03/13 07:38:18;;;;;;;6.22;1.70;;;;;;;;;;5089645;28;20271;-68
2023/03/13 07:40:50;;;;;;;8.40;4.45;;;;;;;;;;5090182;28;20225;-66
2023/03/13 07:43:15;;;;;;;7.40;2.63;;;;;;;;;;5088992;28;20735;-65
2023/03/13 07:46:03;;;;;;;5.97;2.20;;;;;;;;;;5090129;28;20202;-64
2023/03/13 07:48:30;;;;;;;6.13;1.80;;;;;;;;;;5089999;28;20216;-66
2023/03/13 07:50:55;;;;;;;6.60;2.05;;;;;;;;;;5071251;28;20764;-65
2023/03/13 07:53:21;;;;;;;4.70;1.80;;;;;;;;;;5089372;28;20292;-65
2023/03/13 07:55:51;;;;;;;5.78;1.90;;;;;;;;;;5090195;28;20296;-65
2023/03/13 07:58:16;;;;;;;7.15;2.10;;;;;;;;;;5088474;28;20201;-63
2023/03/13 08:00:42;;;;;;;4.18;1.73;;;;;;;;;;5089231;28;20567;-65
2023/03/13 08:03:08;;;;;;;5.30;1.83;;;;;;;;;;5088458;28;20264;-63
2023/03/13 08:05:33;;;;;;;4.68;1.73;;;;;;;;;;5090734;28;20282;-64
2023/03/13 08:07:59;;;;;;;6.55;1.83;;;;;;;;;;5086258;28;20267;-64
2023/03/13 08:10:24;;;;;;;6.28;1.90;;;;;;;;;;5088569;28;20676;-64
2023/03/13 08:12:49;;;;;;;6.40;1.70;;;;;;;;;;5087647;28;20206;-64
2023/03/13 08:15:14;;;;;;;4.90;1.48;;;;;;;;;;5088960;28;20577;-64
2023/03/13 08:17:40;;;;;;;6.47;1.80;;;;;;;;;;5087837;28;21248;-64
2023/03/13 08:20:06;;;;;;;4.97;1.58;;;;;;;;;;5089845;28;20212;-64
2023/03/13 08:22:32;;;;;;;4.28;1.70;;;;;;;;;;5092557;28;20285;-64
2023/03/13 08:24:57;;;;;;;5.63;1.70;;;;;;;;;;5091314;28;20230;-64
2023/03/13 08:27:22;;;;;;;3.85;1.42;;;;;;;;;;5091633;28;20206;-64
2023/03/13 08:29:48;;;;;;;5.05;1.65;;;;;;;;;;5092988;28;20240;-64
2023/03/13 08:32:13;;;;;;;5.65;2.70;;;;;;;;;;5092340;28;20590;-64
2023/03/13 08:34:38;;;;;;;25.10;16.13;;;;;;;;;;5089954;28;20213;-64
2023/03/13 08:37:03;;;;;;;5.95;2.15;;;;;;;;;;5090837;28;20256;-64
2023/03/13 08:39:29;;;;;;;6.75;1.30;;;;;;;;;;5088784;28;20279;-64
2023/03/13 08:41:54;;;;;;;4.43;1.63;;;;;;;;;;5090934;28;20206;-64
2023/03/13 08:44:19;;;;;;;4.53;1.50;;;;;;;;;;5089346;28;20825;-64
2023/03/13 08:46:45;;;;;;;4.22;1.52;;;;;;;;;;5090230;28;20213;-64
2023/03/13 08:49:11;;;;;;;5.30;1.60;;;;;;;;;;5074323;28;20236;-64
2023/03/13 08:51:36;;;;;;;4.05;1.40;;;;;;;;;;5091159;28;20205;-64
2023/03/13 08:54:02;;;;;;;5.47;1.75;;;;;;;;;;5089869;28;20233;-63
2023/03/13 08:56:29;;;;;;;3.20;1.70;;;;;;;;;;5086949;28;20210;-64
2023/03/13 08:58:55;;;;;;;3.88;1.73;;;;;;;;;;5090913;28;20255;-64
2023/03/13 09:01:21;;;;;;;4.07;1.73;;;;;;;;;;5089270;28;20222;-64
2023/03/13 09:03:46;;;;;;;5.22;1.50;;;;;;;;;;5071184;28;20205;-64
2023/03/13 09:06:11;;;;;;;4.70;2.13;;;;;;;;;;5090274;28;20262;-63
2023/03/13 09:08:37;;;;;;;3.88;1.40;;;;;;;;;;5085330;28;20224;-64
2023/03/13 09:11:03;;;;;;;5.68;1.77;;;;;;;;;;5074001;28;20214;-64
2023/03/13 09:13:28;;;;;;;2.65;1.30;;;;;;;;;;5092062;28;20218;-65
2023/03/13 09:15:55;;;;;;;4.43;1.52;;;;;;;;;;5092288;28;20202;-65
2023/03/13 09:18:20;;;;;;;4.00;1.60;;;;;;;;;;5091866;28;20234;-65
2023/03/13 09:20:46;;;;;;;4.38;1.60;;;;;;;;;;5091781;28;20683;-65
2023/03/13 09:23:11;;;;;;;2.45;1.00;;;;;;;;;;5091916;28;20213;-65
2023/03/13 09:25:37;;;;;;;3.78;1.30;;;;;;;;;;5092231;28;20206;-65
2023/03/13 09:28:02;;;;;;;3.60;1.20;;;;;;;;;;5091256;28;20250;-64
2023/03/13 09:30:27;;;;;;;3.60;1.30;;;;;;;;;;5091161;28;20235;-65
2023/03/13 09:32:53;;;;;;;3.80;1.27;;;;;;;;;;5092398;28;20221;-65
2023/03/13 09:35:18;;;;;;;3.38;1.15;;;;;;;;;;5091010;28;20210;-65
2023/03/13 09:37:43;;;;;;;4.35;1.30;;;;;;;;;;5074005;28;20210;-65
2023/03/13 09:40:12;;;;;;;3.75;1.17;;;;;;;;;;5091698;28;20278;-65
2023/03/13 09:42:45;;;;;;;3.25;1.08;;;;;;;;;;5073422;28;20230;-65
2023/03/13 09:45:12;;;;;;;4.68;1.40;;;;;;;;;;5091168;28;20240;-65
2023/03/13 09:47:41;;;;;;;4.97;1.20;;;;;;;;;;5091966;28;20748;-65
2023/03/13 09:50:11;;;;;;;5.45;1.30;;;;;;;;;;5090775;28;20589;-64
2023/03/13 09:52:39;;;;;;;4.10;1.13;;;;;;;;;;5074014;28;20221;-65
2023/03/13 09:55:10;;;;;;;3.15;1.10;;;;;;;;;;5091589;28;20677;-65
2023/03/13 09:57:39;;;;;;;3.17;1.20;;;;;;;;;;5073071;28;20570;-65
2023/03/13 10:00:12;;;;;;;3.80;1.20;;;;;;;;;;5073158;28;20212;-64
2023/03/13 10:02:38;;;;;;;4.45;1.33;;;;;;;;;;5090875;28;20628;-65
2023/03/13 10:05:04;;;;;;;4.05;1.23;;;;;;;;;;5091308;28;20756;-64
2023/03/13 10:07:29;;;;;;;4.60;1.23;;;;;;;;;;5091726;28;20218;-65
2023/03/13 10:09:55;;;;;;;3.90;1.52;;;;;;;;;;5090839;28;20220;-65
2023/03/13 10:12:22;;;;;;;3.47;1.35;;;;;;;;;;5090985;28;20221;-65
2023/03/13 10:14:51;;;;;;;3.00;1.10;;;;;;;;;;5073219;28;20296;-65
2023/03/13 10:17:21;;;;;;;3.92;1.23;;;;;;;;;;5071870;28;20222;-65
2023/03/13 10:19:47;;;;;;;4.32;1.95;;;;;;;;;;5091467;28;20213;-65
2023/03/13 10:22:15;;;;;;;2.92;1.20;;;;;;;;;;5072959;28;20878;-64
2023/03/13 10:24:44;;;;;;;2.00;1.00;;;;;;;;;;5090828;28;20202;-65
2023/03/13 10:27:09;;;;;;;4.00;1.42;;;;;;;;;;5072443;28;20243;-64
2023/03/13 10:29:34;;;;;;;3.47;1.20;;;;;;;;;;5090712;28;20683;-65
2023/03/13 10:32:00;;;;;;;3.72;1.13;;;;;;;;;;5090459;28;20700;-65
2023/03/13 10:34:26;;;;;;;5.57;1.33;;;;;;;;;;5090913;28;20209;-65
2023/03/13 10:36:57;;;;;;;4.85;1.27;;;;;;;;;;5091217;28;20210;-65
2023/03/13 10:39:23;;;;;;;3.65;1.20;;;;;;;;;;5089648;28;20214;-64
2023/03/13 10:41:48;;;;;;;3.17;1.20;;;;;;;;;;5091118;28;20541;-65
2023/03/13 10:44:14;;;;;;;3.03;1.30;;;;;;;;;;5090246;28;20310;-64
2023/03/13 10:46:40;;;;;;;4.72;1.05;;;;;;;;;;5090202;28;20741;-65
2023/03/13 10:49:15;;;;;;;4.20;1.15;;;;;;;;;;5090216;28;20241;-64
2023/03/13 10:51:43;;;;;;;5.10;1.30;;;;;;;;;;5090973;28;20233;-65
2023/03/13 10:54:20;;;;;;;4.60;1.30;;;;;;;;;;5090237;28;20225;-64
2023/03/13 10:56:46;;;;;;;3.75;1.27;;;;;;;;;;5090772;28;20213;-64
2023/03/13 10:59:27;;;;;;;4.15;1.25;;;;;;;;;;5089118;28;20240;-64
2023/03/13 11:01:59;;;;;;;3.53;1.10;;;;;;;;;;5090540;28;20233;-64
2023/03/13 11:04:27;;;;;;;3.58;1.30;;;;;;;;;;5090148;28;20202;-64
2023/03/13 11:06:53;;;;;;;3.60;1.33;;;;;;;;;;5089727;28;20274;-64
2023/03/13 11:09:18;;;;;;;3.83;1.15;;;;;;;;;;5071858;28;20633;-64
2023/03/13 11:11:47;;;;;;;5.40;1.30;;;;;;;;;;5090727;28;20263;-64
2023/03/13 11:14:13;;;;;;;3.63;1.40;;;;;;;;;;5088811;28;20205;-64
2023/03/13 11:16:44;;;;;;;3.80;0.98;;;;;;;;;;5090285;28;20206;-64
2023/03/13 11:19:19;;;;;;;4.10;1.25;;;;;;;;;;5089491;28;20229;-64
2023/03/13 11:21:53;;;;;;;1.98;0.90;;;;;;;;;;5071817;28;20209;-64
2023/03/13 11:24:28;;;;;;;1.95;1.02;;;;;;;;;;5071972;28;20253;-64
2023/03/13 11:27:05;;;;;;;4.35;1.10;;;;;;;;;;5089850;28;20201;-64
2023/03/13 11:29:34;;;;;;;3.28;1.35;;;;;;;;;;5071679;28;20722;-64
2023/03/13 11:32:00;;;;;;;2.47;0.80;;;;;;;;;;5072373;28;20209;-64
2023/03/13 11:34:28;;;;;;;3.78;2.40;;;;;;;;;;5089202;28;20229;-64
2023/03/13 11:36:54;;;;;;;2.90;0.90;;;;;;;;;;5090399;28;20212;-64
2023/03/13 11:39:22;;;;;;;4.75;1.08;;;;;;;;;;5089681;28;20217;-64
2023/03/13 11:41:52;;;;;;;3.00;0.95;;;;;;;;;;5089667;28;20211;-65
2023/03/13 11:44:23;;;;;;;4.05;0.90;;;;;;;;;;5089517;28;20210;-64
2023/03/13 11:46:51;;;;;;;2.33;1.00;;;;;;;;;;5090267;28;20205;-64
2023/03/13 11:49:35;;;;;;;2.45;1.05;;;;;;;;;;5070661;28;20221;-64
2023/03/13 11:52:04;;;;;;;1.88;0.80;;;;;;;;;;5089751;28;20221;-63
2023/03/13 11:54:36;;;;;;;1.83;0.90;;;;;;;;;;5093379;28;20226;-64
2023/03/13 11:57:04;;;;;;;2.10;0.80;;;;;;;;;;5075096;28;20310;-64
2023/03/13 11:59:43;;;;;;;3.40;0.80;;;;;;;;;;5094178;28;20251;-64
2023/03/13 12:02:20;;;;;;;1.63;0.70;;;;;;;;;;5075050;28;20757;-64
2023/03/13 12:04:48;;;;;;;3.67;0.80;;;;;;;;;;5076055;28;20216;-64
2023/03/13 12:07:18;;;;;;;1.85;0.70;;;;;;;;;;5075690;28;20209;-64
2023/03/13 12:09:45;;;;;;;3.90;0.75;;;;;;;;;;5075067;28;20221;-64
2023/03/13 12:12:11;;;;;;;2.33;0.75;;;;;;;;;;5075720;28;20258;-64
2023/03/13 12:14:37;;;;;;;2.53;0.85;;;;;;;;;;5075993;28;20296;-64
2023/03/13 12:17:04;;;;;;;2.72;1.02;;;;;;;;;;5092604;28;20757;-64
2023/03/13 12:19:31;;;;;;;2.88;1.08;;;;;;;;;;5075520;28;20339;-63
2023/03/13 12:21:57;;;;;;;2.20;0.65;;;;;;;;;;5075719;28;20214;-64
2023/03/13 12:24:39;;;;;;;3.55;1.15;;;;;;;;;;5092518;28;20232;-64
2023/03/13 12:27:18;;;;;;;2.15;0.90;;;;;;;;;;5075038;28;20217;-64
2023/03/13 12:29:45;;;;;;;3.30;1.35;;;;;;;;;;5075277;28;20225;-64
2023/03/13 12:32:12;;;;;;;4.88;2.00;;;;;;;;;;5092445;28;20213;-64
2023/03/13 12:34:44;;;;;;;2.55;1.00;;;;;;;;;;5075411;28;20205;-64
2023/03/13 12:37:11;;;;;;;2.45;1.00;;;;;;;;;;5075004;28;20564;-63
2023/03/13 12:39:38;;;;;;;2.67;0.95;;;;;;;;;;5075081;28;20206;-64
2023/03/13 12:42:08;;;;;;;3.40;1.10;;;;;;;;;;5093010;28;20221;-64
2023/03/13 12:44:33;;;;;;;3.90;1.00;;;;;;;;;;5074444;28;20206;-67
2023/03/13 12:47:17;;;;;;;3.28;1.00;;;;;;;;;;5093178;28;20206;-68
2023/03/13 12:49:44;;;;;;;3.08;0.95;;;;;;;;;;5072421;28;20694;-68
2023/03/13 12:52:20;;;;;;;2.40;0.70;;;;;;;;;;5071753;28;20206;-67
2023/03/13 12:54:52;;;;;;;3.15;1.02;;;;;;;;;;5073045;28;20297;-67
2023/03/13 12:57:19;;;;;;;4.88;1.30;;;;;;;;;;5054455;28;20202;-67
2023/03/13 12:59:46;;;;;;;3.45;1.00;;;;;;;;;;5072095;28;20211;-67
2023/03/13 13:02:14;;;;;;;4.55;0.80;;;;;;;;;;5054515;28;20214;-67
2023/03/13 13:04:41;;;;;;;3.22;1.10;;;;;;;;;;5053814;28;20206;-67
2023/03/13 13:07:06;;;;;;;3.40;0.90;;;;;;;;;;5071494;28;20221;-67
2023/03/13 13:09:34;;;;;;;4.13;0.88;;;;;;;;;;5054843;28;20222;-67
2023/03/13 13:12:18;;;;;;;3.60;1.15;;;;;;;;;;5055020;28;20210;-67
2023/03/13 13:14:46;;;;;;;4.50;1.13;;;;;;;;;;5071591;28;20206;-67
2023/03/13 13:17:12;;;;;;;2.58;0.80;;;;;;;;;;5071619;28;20318;-67
2023/03/13 13:19:37;;;;;;;2.58;1.00;;;;;;;;;;5090599;28;20229;-67
2023/03/13 13:22:21;;;;;;;3.75;1.00;;;;;;;;;;5092100;28;20573;-66
2023/03/13 13:24:48;;;;;;;4.32;1.02;;;;;;;;;;5092631;28;20294;-67
2023/03/13 13:27:33;;;;;;;2.17;0.90;;;;;;;;;;5091227;28;20703;-67
2023/03/13 13:29:59;;;;;;;4.95;1.05;;;;;;;;;;5092402;28;20292;-68
2023/03/13 13:32:32;;;;;;;2.75;0.93;;;;;;;;;;5091914;28;20706;-71
2023/03/13 13:35:05;;;;;;;3.28;0.90;;;;;;;;;;5087802;28;20276;-68
2023/03/13 13:37:30;;;;;;;3.03;1.00;;;;;;;;;;5090828;28;20202;-68
2023/03/13 13:40:16;;;;;;;3.03;1.30;;;;;;;;;;5074256;28;20208;-69
2023/03/13 13:42:45;;;;;;;2.63;0.85;;;;;;;;;;5091093;28;20237;-68
2023/03/13 13:45:11;;;;;;;2.03;0.93;;;;;;;;;;5091563;28;20297;-68
2023/03/13 13:47:37;;;;;;;3.45;1.10;;;;;;;;;;5091232;28;20216;-68
2023/03/13 13:50:02;;;;;;;4.10;1.00;;;;;;;;;;5091215;28;20225;-67
2023/03/13 13:52:28;;;;;;;4.60;0.90;;;;;;;;;;5092175;28;20248;-69
2023/03/13 13:54:55;;;;;;;2.97;0.90;;;;;;;;;;5091529;28;20555;-67
2023/03/13 13:57:21;;;;;;;5.10;1.70;;;;;;;;;;5091423;28;20248;-67
2023/03/13 13:59:48;;;;;;;5.53;1.55;;;;;;;;;;5074102;28;20657;-67
2023/03/13 14:02:16;;;;;;;4.50;1.33;;;;;;;;;;5052464;28;20218;-66
2023/03/13 14:04:49;;;;;;;5.03;2.20;;;;;;;;;;5071653;28;20210;-67
2023/03/13 14:07:19;;;;;;;5.75;1.80;;;;;;;;;;5071049;28;20214;-66
2023/03/13 14:09:51;;;;;;;4.60;1.98;;;;;;;;;;5070931;28;20218;-67
2023/03/13 14:12:26;;;;;;;3.95;1.10;;;;;;;;;;5071219;28;20293;-66
2023/03/13 14:15:08;;;;;;;6.55;1.20;;;;;;;;;;5071516;28;20625;-67
2023/03/13 14:17:40;;;;;;;5.60;1.20;;;;;;;;;;5071428;28;20225;-67
2023/03/13 14:20:14;;;;;;;5.97;1.95;;;;;;;;;;5090787;28;20221;-66
2023/03/13 14:22:43;;;;;;;4.65;1.00;;;;;;;;;;5073372;28;20652;-67
2023/03/13 14:25:09;;;;;;;6.97;1.65;;;;;;;;;;5090864;28;20221;-67
2023/03/13 14:27:34;;;;;;;6.90;2.00;;;;;;;;;;5091397;28;20266;-66
2023/03/13 14:30:00;;;;;;;4.22;1.30;;;;;;;;;;5072347;28;20248;-68
2023/03/13 14:32:26;;;;;;;2.85;1.00;;;;;;;;;;5091070;28;20205;-68
2023/03/13 14:34:51;;;;;;;4.15;1.73;;;;;;;;;;5073015;28;20202;-67
2023/03/13 14:37:35;;;;;;;5.28;1.20;;;;;;;;;;5089715;28;20221;-68
2023/03/13 14:40:07;;;;;;;4.90;2.13;;;;;;;;;;5090832;28;20216;-66